createdAt,value
2023-01-25T00:00:00.863Z,100561.78
2023-01-25T00:02:28.595Z,100552.97
2023-01-25T00:05:00.637Z,100551.28
2023-01-25T00:07:27.944Z,100549.63
2023-01-25T00:09:54.988Z,100545.97
2023-01-25T00:12:22.097Z,100543.13
2023-01-25T00:14:49.168Z,100542.13
2023-01-25T00:17:16.245Z,100541.13
2023-01-25T00:19:43.411Z,100541.78
2023-01-25T00:22:10.723Z,100539.97
2023-01-25T00:24:37.876Z,100534.63
2023-01-25T00:27:04.967Z,100533.78
2023-01-25T00:29:31.990Z,100525.13
2023-01-25T00:31:59.539Z,100517.97
2023-01-25T00:34:27.487Z,100519.63
2023-01-25T00:36:54.555Z,100513.31
2023-01-25T00:39:21.737Z,100517.81
2023-01-25T00:41:48.911Z,100509.81
2023-01-25T00:44:16.122Z,100512.13
2023-01-25T00:46:45.800Z,100507.63
2023-01-25T00:49:20.080Z,100506.66
2023-01-25T00:51:47.069Z,100507.50
2023-01-25T00:54:14.292Z,100503.16
2023-01-25T00:56:43.917Z,100507.81
2023-01-25T00:59:12.555Z,100506.81
2023-01-25T01:01:41.440Z,100493.34
2023-01-25T01:04:33.828Z,100492.00
2023-01-25T01:07:02.111Z,100487.50
2023-01-25T01:09:32.148Z,100481.34
2023-01-25T01:11:59.112Z,100498.16
2023-01-25T01:14:26.110Z,100492.00
2023-01-25T01:16:53.194Z,100490.00
2023-01-25T01:19:20.161Z,100485.50
2023-01-25T01:21:47.268Z,100483.31
2023-01-25T01:24:18.123Z,100485.81
2023-01-25T01:26:45.240Z,100484.31
2023-01-25T01:29:12.393Z,100481.81
2023-01-25T01:31:39.574Z,100473.00
2023-01-25T01:34:15.343Z,100468.50
2023-01-25T01:36:44.000Z,100465.00
2023-01-25T01:39:11.241Z,100457.16
2023-01-25T01:41:38.372Z,100452.84
2023-01-25T01:44:06.611Z,100450.16
2023-01-25T01:46:37.499Z,100450.00
2023-01-25T01:49:19.979Z,100459.84
2023-01-25T01:51:49.456Z,100459.00
2023-01-25T01:54:27.708Z,100449.00
2023-01-25T01:57:16.716Z,100441.00
2023-01-25T01:59:50.088Z,100435.66
2023-01-25T02:02:17.250Z,100435.16
2023-01-25T02:04:47.038Z,100438.66
2023-01-25T02:07:29.118Z,100442.00
2023-01-25T02:09:59.303Z,100436.50
2023-01-25T02:12:30.185Z,100436.66
2023-01-25T02:14:57.201Z,100437.00
2023-01-25T02:17:36.526Z,100446.66
2023-01-25T02:20:26.315Z,100443.84
2023-01-25T02:22:53.220Z,100443.84
2023-01-25T02:25:20.250Z,100444.00
2023-01-25T02:27:53.794Z,100449.16
2023-01-25T02:30:21.058Z,100444.84
2023-01-25T02:32:47.915Z,100446.50
2023-01-25T02:35:22.133Z,100448.16
2023-01-25T02:37:50.545Z,100447.16
2023-01-25T02:40:18.331Z,100451.16
2023-01-25T02:42:46.697Z,100444.81
2023-01-25T02:45:16.403Z,100445.66
2023-01-25T02:47:43.343Z,100444.31
2023-01-25T02:50:10.667Z,100462.63
2023-01-25T02:52:37.597Z,100451.13
2023-01-25T02:55:04.834Z,100461.13
2023-01-25T02:57:31.839Z,100455.31
2023-01-25T03:00:00.136Z,100454.66
2023-01-25T03:02:27.775Z,100455.00
2023-01-25T03:04:54.886Z,100446.50
2023-01-25T03:07:22.311Z,100453.16
2023-01-25T03:09:49.929Z,100449.97
2023-01-25T03:12:16.819Z,100451.81
2023-01-25T03:14:45.064Z,100450.97
2023-01-25T03:17:12.281Z,100445.00
2023-01-25T03:19:39.440Z,100435.66
2023-01-25T03:22:07.518Z,100436.84
2023-01-25T03:24:34.389Z,100437.16
2023-01-25T03:27:14.484Z,100430.00
2023-01-25T03:30:01.414Z,100421.50
2023-01-25T03:32:32.116Z,100412.16
2023-01-25T03:35:04.954Z,100417.16
2023-01-25T03:37:33.784Z,100421.00
2023-01-25T03:40:01.658Z,100416.16
2023-01-25T03:42:30.453Z,100423.81
2023-01-25T03:44:58.777Z,100419.50
2023-01-25T03:47:26.191Z,100416.16
2023-01-25T03:49:54.067Z,100429.50
2023-01-25T03:52:21.119Z,100426.84
2023-01-25T03:54:48.343Z,100422.50
2023-01-25T03:57:15.277Z,100429.19
2023-01-25T03:59:55.393Z,100423.19
2023-01-25T04:02:48.152Z,100428.50
2023-01-25T04:05:20.709Z,100432.00
2023-01-25T04:07:51.630Z,100431.84
2023-01-25T04:10:32.235Z,100421.19
2023-01-25T04:13:00.656Z,100425.50
2023-01-25T04:15:27.836Z,100430.66
2023-01-25T04:17:57.647Z,100427.34
2023-01-25T04:20:24.679Z,100423.31
2023-01-25T04:22:52.884Z,100426.00
2023-01-25T04:25:23.015Z,100418.03
2023-01-25T04:27:53.308Z,100418.53
2023-01-25T04:30:20.625Z,100415.38
2023-01-25T04:32:50.001Z,100411.88
2023-01-25T04:35:34.863Z,100424.34
2023-01-25T04:38:04.348Z,100426.31
2023-01-25T04:40:42.802Z,100431.81
2023-01-25T04:43:11.249Z,100435.66
2023-01-25T04:45:38.661Z,100433.50
2023-01-25T04:48:12.526Z,100436.50
2023-01-25T04:50:48.546Z,100434.16
2023-01-25T04:53:19.129Z,100439.50
2023-01-25T04:55:47.489Z,100433.34
2023-01-25T04:58:15.543Z,100445.66
2023-01-25T05:00:44.582Z,100451.31
2023-01-25T05:03:11.976Z,100442.00
2023-01-25T05:05:39.312Z,100437.81
2023-01-25T05:08:11.533Z,100430.00
2023-01-25T05:10:38.604Z,100421.19
2023-01-25T05:13:43.790Z,100426.66
2023-01-25T05:16:17.109Z,100428.34
2023-01-25T05:18:48.878Z,100432.34
2023-01-25T05:21:39.185Z,100429.34
2023-01-25T05:24:07.334Z,100441.81
2023-01-25T05:26:53.413Z,100431.34
2023-01-25T05:29:20.461Z,100437.66
2023-01-25T05:32:00.336Z,100437.31
2023-01-25T05:34:28.961Z,100438.00
2023-01-25T05:36:56.745Z,100443.00
2023-01-25T05:39:23.627Z,100437.81
2023-01-25T05:41:51.164Z,100451.31
2023-01-25T05:44:18.057Z,100442.66
2023-01-25T05:46:47.974Z,100430.16
2023-01-25T05:49:16.769Z,100424.66
2023-01-25T05:51:44.111Z,100425.50
2023-01-25T05:54:16.476Z,100427.00
2023-01-25T05:56:50.285Z,100424.84
2023-01-25T05:59:18.144Z,100418.00
2023-01-25T06:01:45.379Z,100422.69
2023-01-25T06:04:14.847Z,100428.84
2023-01-25T06:06:41.951Z,100428.84
2023-01-25T06:09:10.498Z,100430.69
2023-01-25T06:11:39.638Z,100431.34
2023-01-25T06:14:07.951Z,100432.19
2023-01-25T06:16:35.073Z,100431.53
2023-01-25T06:19:24.948Z,100436.84
2023-01-25T06:22:09.309Z,100438.50
2023-01-25T06:24:36.255Z,100433.69
2023-01-25T06:27:03.096Z,100438.34
2023-01-25T06:29:30.305Z,100435.84
2023-01-25T06:31:57.216Z,100432.00
2023-01-25T06:34:25.038Z,100423.03
2023-01-25T06:36:53.060Z,100432.00
2023-01-25T06:39:20.054Z,100425.34
2023-01-25T06:41:47.481Z,100424.16
2023-01-25T06:44:14.263Z,100434.81
2023-01-25T06:46:41.196Z,100434.16
2023-01-25T06:49:08.945Z,100436.16
2023-01-25T06:51:35.915Z,100446.31
2023-01-25T06:54:04.367Z,100439.00
2023-01-25T06:56:38.990Z,100436.81
2023-01-25T07:00:14.279Z,100440.16
2023-01-25T07:02:39.333Z,100434.50
2023-01-25T07:05:34.761Z,100439.50
2023-01-25T07:08:01.821Z,100439.16
2023-01-25T07:10:33.725Z,100432.00
2023-01-25T07:13:07.283Z,100442.66
2023-01-25T07:15:42.493Z,100438.00
2023-01-25T07:18:20.058Z,100436.31
2023-01-25T07:20:47.802Z,100432.00
2023-01-25T07:26:31.446Z,100427.00
2023-01-25T07:29:57.095Z,100428.00
2023-01-25T07:32:30.258Z,100437.31
2023-01-25T07:34:57.557Z,100421.34
2023-01-25T07:37:27.792Z,100423.16
2023-01-25T07:39:59.371Z,100416.50
2023-01-25T07:42:27.964Z,100426.31
2023-01-25T07:45:11.677Z,100426.34
2023-01-25T07:47:46.824Z,100415.19
2023-01-25T07:50:14.393Z,100417.84
2023-01-25T07:52:42.050Z,100420.66
2023-01-25T07:55:09.975Z,100422.50
2023-01-25T07:57:37.501Z,100413.16
2023-01-25T08:00:06.925Z,100408.50
2023-01-25T08:02:39.553Z,100411.81
2023-01-25T08:05:07.256Z,100404.00
2023-01-25T08:07:34.378Z,100406.81
2023-01-25T08:10:01.829Z,100410.16
2023-01-25T08:12:30.803Z,100411.47
2023-01-25T08:14:58.028Z,100412.31
2023-01-25T08:17:37.192Z,100414.81
2023-01-25T08:20:09.233Z,100406.47
2023-01-25T08:22:39.305Z,100412.63
2023-01-25T08:25:07.281Z,100415.47
2023-01-25T08:27:37.261Z,100404.78
2023-01-25T08:30:07.301Z,100407.94
2023-01-25T08:32:38.257Z,100413.28
2023-01-25T08:35:08.106Z,100410.44
2023-01-25T08:37:46.477Z,100410.13
2023-01-25T08:40:42.629Z,100405.28
2023-01-25T08:43:30.380Z,100400.25
2023-01-25T08:46:17.217Z,100398.56
2023-01-25T08:48:44.504Z,100396.03
2023-01-25T08:51:15.733Z,100401.88
2023-01-25T08:53:44.120Z,100382.25
2023-01-25T08:56:16.085Z,100382.41
2023-01-25T08:58:47.423Z,100374.09
2023-01-25T09:01:16.058Z,100374.09
2023-01-25T09:03:44.664Z,100370.78
2023-01-25T09:06:12.972Z,100368.44
2023-01-25T09:08:42.433Z,100364.44
2023-01-25T09:11:13.628Z,100360.28
2023-01-25T09:13:44.691Z,100357.44
2023-01-25T09:16:16.734Z,100359.59
2023-01-25T09:18:50.662Z,100350.09
2023-01-25T09:21:19.119Z,100351.06
2023-01-25T09:24:04.550Z,100349.72
2023-01-25T09:26:36.401Z,100341.84
2023-01-25T09:29:03.570Z,100336.97
2023-01-25T09:31:31.033Z,100345.34
2023-01-25T09:34:17.033Z,100346.16
2023-01-25T09:36:44.364Z,100326.13
2023-01-25T09:39:14.439Z,100320.47
2023-01-25T09:41:47.481Z,100321.31
2023-01-25T09:45:07.536Z,100319.13
2023-01-25T09:47:41.906Z,100315.63
2023-01-25T09:50:32.210Z,100302.94
2023-01-25T09:53:18.026Z,100295.47
2023-01-25T09:55:54.171Z,100290.31
2023-01-25T09:58:26.310Z,100295.66
2023-01-25T10:00:59.826Z,100290.13
2023-01-25T10:03:32.663Z,100283.63
2023-01-25T10:06:01.922Z,100279.94
2023-01-25T10:08:44.402Z,100270.59
2023-01-25T10:11:23.982Z,100282.09
2023-01-25T10:13:51.159Z,100273.78
2023-01-25T10:16:25.939Z,100270.44
2023-01-25T10:18:53.517Z,100256.44
2023-01-25T10:21:30.058Z,100264.81
2023-01-25T10:23:57.197Z,100270.97
2023-01-25T10:26:29.458Z,100263.81
2023-01-25T10:29:04.247Z,100266.28
2023-01-25T10:31:31.481Z,100259.94
2023-01-25T10:34:02.398Z,100269.78
2023-01-25T10:36:31.529Z,100266.19
2023-01-25T10:39:01.112Z,100264.09
2023-01-25T10:41:35.009Z,100264.59
2023-01-25T10:44:20.573Z,100260.94
2023-01-25T10:47:05.692Z,100261.13
2023-01-25T10:49:40.802Z,100249.47
2023-01-25T10:52:18.726Z,100245.78
2023-01-25T10:54:48.793Z,100241.09
2023-01-25T10:57:20.312Z,100243.06
2023-01-25T10:59:50.326Z,100240.19
2023-01-25T11:02:39.295Z,100234.50
2023-01-25T11:05:24.444Z,100226.63
2023-01-25T11:07:51.417Z,100222.56
2023-01-25T11:10:27.495Z,100222.69
2023-01-25T11:13:13.182Z,100220.66
2023-01-25T11:15:41.212Z,100226.19
2023-01-25T11:18:13.110Z,100228.38
2023-01-25T11:20:39.953Z,100218.38
2023-01-25T11:23:21.474Z,100218.09
2023-01-25T11:25:48.246Z,100214.28
2023-01-25T11:28:20.972Z,100214.66
2023-01-25T11:30:48.999Z,100214.66
2023-01-25T11:33:17.106Z,100202.16
2023-01-25T11:36:02.356Z,100194.31
2023-01-25T11:38:29.649Z,100191.28
2023-01-25T11:41:18.478Z,100193.25
2023-01-25T11:43:45.430Z,100196.06
2023-01-25T11:46:39.606Z,100192.88
2023-01-25T11:49:08.505Z,100182.75
2023-01-25T11:52:17.429Z,100188.28
2023-01-25T11:55:42.144Z,100191.78
2023-01-25T11:58:47.719Z,100177.97
2023-01-25T12:01:31.697Z,100185.13
2023-01-25T12:04:01.777Z,100179.97
2023-01-25T12:06:35.877Z,100179.63
2023-01-25T12:09:49.668Z,100189.28
2023-01-25T12:12:42.989Z,100183.94
2023-01-25T12:15:21.519Z,100183.94
2023-01-25T12:18:07.167Z,100175.09
2023-01-25T12:21:13.400Z,100178.78
2023-01-25T12:24:01.967Z,100176.47
2023-01-25T12:26:29.951Z,100175.00
2023-01-25T12:28:56.988Z,100177.66
2023-01-25T12:31:48.183Z,100173.34
2023-01-25T12:34:26.795Z,100175.16
2023-01-25T12:37:00.785Z,100178.31
2023-01-25T12:40:05.024Z,100170.50
2023-01-25T12:43:02.186Z,100168.34
2023-01-25T13:14:21.660Z,100144.88
2023-01-25T13:21:20.945Z,100130.72
2023-01-25T13:28:19.173Z,100123.75
2023-01-25T13:30:52.200Z,100124.28
2023-01-25T13:33:42.977Z,100118.00
2023-01-25T14:26:43.695Z,100055.25
2023-01-25T14:30:48.380Z,100045.59
2023-01-25T14:38:23.449Z,100045.59
2023-01-25T14:54:18.880Z,100050.72
2023-01-25T14:57:20.632Z,100041.59
2023-01-25T15:03:29.009Z,100038.94
2023-01-25T15:10:02.804Z,100056.88
2023-01-25T15:12:39.067Z,100057.88
2023-01-25T15:15:29.902Z,100048.41
2023-01-25T15:18:04.824Z,100042.25
2023-01-25T15:20:42.056Z,100043.25
2023-01-25T15:23:43.354Z,100050.25
2023-01-25T15:26:21.442Z,100047.88
2023-01-25T15:28:54.442Z,100045.03
2023-01-25T15:31:35.065Z,100029.88
2023-01-25T15:34:03.351Z,100037.03
2023-01-25T15:36:32.275Z,100023.91
2023-01-25T15:38:59.805Z,100021.41
2023-01-25T15:41:26.982Z,100029.56
2023-01-25T15:43:54.463Z,100023.25
2023-01-25T15:46:24.015Z,100025.06
2023-01-25T15:52:21.968Z,100010.94
2023-01-25T15:54:59.874Z,100010.47
2023-01-25T15:57:34.910Z,99990.97
2023-01-25T16:00:02.910Z,100002.00
2023-01-25T16:02:31.997Z,99995.31
2023-01-25T16:04:59.413Z,99999.81
2023-01-25T16:07:30.734Z,99992.84
2023-01-25T16:10:00.111Z,100002.50
2023-01-25T16:12:27.603Z,100001.00
2023-01-25T16:15:47.912Z,99995.69
2023-01-25T16:18:15.886Z,99996.19
2023-01-25T16:20:44.082Z,100004.31
2023-01-25T16:23:16.927Z,100000.00
2023-01-25T16:26:15.498Z,100001.84
2023-01-25T16:28:44.007Z,99998.34
2023-01-25T16:31:29.871Z,99990.19
2023-01-25T16:34:02.390Z,99987.34
2023-01-25T16:36:41.676Z,99982.88
2023-01-25T16:39:19.884Z,99965.06
2023-01-25T16:42:09.510Z,99970.38
2023-01-25T16:44:39.401Z,99960.56
2023-01-25T16:51:01.070Z,99956.25
2023-01-25T16:53:43.273Z,99954.72
2023-01-25T16:56:50.922Z,99951.25
2023-01-25T17:00:05.755Z,99953.25
2023-01-25T17:03:24.853Z,99954.06
2023-01-25T17:09:43.675Z,99950.66
2023-01-25T17:12:54.088Z,99956.97
2023-01-25T17:15:43.132Z,99970.28
2023-01-25T17:18:10.871Z,99968.44
2023-01-25T17:20:39.791Z,99964.31
2023-01-25T17:23:07.451Z,99970.81
2023-01-25T17:25:40.800Z,99973.66
2023-01-25T17:28:23.413Z,99958.50
2023-01-25T17:30:54.580Z,99952.72
2023-01-25T17:33:22.472Z,99967.19
2023-01-25T17:36:05.758Z,99954.25
2023-01-25T17:39:16.327Z,99939.41
2023-01-25T17:41:51.047Z,99947.91
2023-01-25T17:44:22.108Z,99942.59
2023-01-25T17:46:58.303Z,99932.78
2023-01-25T17:50:06.380Z,99944.75
2023-01-25T17:55:39.171Z,99938.28
2023-01-25T17:58:06.251Z,99946.44
2023-01-25T18:00:33.918Z,99943.78
2023-01-25T18:08:43.035Z,99931.06
2023-01-25T18:11:11.476Z,99925.91
2023-01-25T18:13:40.132Z,99947.56
2023-01-25T18:16:08.581Z,99937.41
2023-01-25T18:18:36.872Z,99951.03
2023-01-25T18:21:28.703Z,99938.28
2023-01-25T18:23:56.910Z,99939.97
2023-01-25T18:26:24.091Z,99935.81
2023-01-25T18:28:58.185Z,99923.34
2023-01-25T18:31:26.015Z,99919.84
2023-01-25T18:34:13.662Z,99917.38
2023-01-25T18:41:27.780Z,99914.53
2023-01-25T18:44:36.549Z,99920.69
2023-01-25T18:47:21.323Z,99887.78
2023-01-25T18:50:36.547Z,99897.09
2023-01-25T18:53:23.019Z,99899.28
2023-01-25T18:59:09.034Z,99900.94
2023-01-25T19:01:38.552Z,99891.66
2023-01-25T19:05:30.528Z,99876.22
2023-01-25T19:16:56.716Z,99891.06
2023-01-25T19:20:27.662Z,99885.75
2023-01-25T19:31:13.427Z,99857.47
2023-01-25T19:34:30.774Z,99844.84
2023-01-25T19:50:09.169Z,99859.13
2023-01-25T20:36:03.217Z,99827.28
2023-01-25T21:08:48.128Z,99772.38
2023-01-25T22:24:42.135Z,99743.63
2023-01-25T22:27:25.640Z,99744.94
